Time;durP1;ratioP1;P1;durP2;ratioP2;P2;SDS_P1;SDS_P2;PMS_P1;PMS_P2;Temp;Humidity;BMP_temperature;BMP_pressure;BME280_temperature;BME280_humidity;BME280_pressure;Samples;Min_cycle;Max_cycle;Signal;HPM_P1;HPM_P2
2023/07/11 00:00:21;;;;;;;12.82;9.52;;;;;;;-143.21;70.95;71917.50;5112104;27;20702;-80
2023/07/11 00:02:49;;;;;;;15.20;10.07;;;;;;;-143.21;70.30;71915.53;5106598;27;20649;-82
2023/07/11 00:05:19;;;;;;;18.85;9.50;;;;;;;-143.21;70.37;71917.50;5108397;28;20218;-80
2023/07/11 00:07:47;;;;;;;14.50;9.55;;;;;;;-143.21;70.22;71915.53;5109493;27;20231;-80
2023/07/11 00:10:15;;;;;;;18.15;9.10;;;;;;;-143.21;70.38;71915.53;5110905;27;20275;-80
2023/07/11 00:12:43;;;;;;;17.45;9.77;;;;;;;-143.21;70.63;71917.50;5111987;27;20207;-80
2023/07/11 00:15:12;;;;;;;15.15;9.38;;;;;;;-143.21;70.68;71927.44;5109678;27;20203;-80
2023/07/11 00:17:39;;;;;;;19.52;9.38;;;;;;;-143.21;70.58;71927.44;5111981;27;20204;-81
2023/07/11 00:20:09;;;;;;;13.88;9.63;;;;;;;-143.21;70.60;71931.38;5110374;27;20204;-81
2023/07/11 00:22:37;;;;;;;17.00;9.80;;;;;;;-143.21;71.03;71929.41;5110449;27;20638;-80
2023/07/11 00:25:06;;;;;;;13.45;10.10;;;;;;;-143.21;71.10;71927.44;5106935;27;20575;-79
2023/07/11 00:27:33;;;;;;;14.77;9.82;;;;;;;-143.21;71.29;71931.38;5106175;27;20211;-81
2023/07/11 00:30:00;;;;;;;17.40;9.73;;;;;;;-143.21;71.56;71925.44;5109852;27;20348;-81
2023/07/11 00:32:26;;;;;;;15.02;10.02;;;;;;;-143.21;71.21;71923.47;5107733;28;20231;-80
2023/07/11 00:34:53;;;;;;;15.13;10.18;;;;;;;-143.21;71.13;71931.38;5107261;27;20727;-80
2023/07/11 00:37:20;;;;;;;13.40;9.50;;;;;;;-143.21;70.77;71933.38;5107955;27;20223;-80
2023/07/11 00:39:48;;;;;;;14.25;9.52;;;;;;;-143.21;70.56;71933.38;5111894;27;20602;-80
2023/07/11 00:42:18;;;;;;;14.77;9.85;;;;;;;-143.21;70.60;71925.44;5108303;27;20247;-80
2023/07/11 00:44:48;;;;;;;13.10;9.27;;;;;;;-143.21;71.18;71937.34;5107744;27;20204;-80
2023/07/11 00:47:16;;;;;;;14.50;9.80;;;;;;;-143.21;71.06;71943.28;5113151;27;20331;-80
2023/07/11 00:49:42;;;;;;;16.17;9.95;;;;;;;-143.21;71.15;71939.31;5109068;27;20235;-80
2023/07/11 00:52:10;;;;;;;14.48;9.57;;;;;;;-143.21;71.44;71933.38;5107889;27;20196;-82
2023/07/11 00:54:38;;;;;;;12.80;9.52;;;;;;;-143.21;71.55;71931.38;5106436;28;20200;-81
2023/07/11 00:57:11;;;;;;;14.27;10.15;;;;;;;-143.21;71.93;71935.34;5108521;27;20208;-81
2023/07/11 00:59:38;;;;;;;14.88;10.02;;;;;;;-143.21;71.72;71935.34;5107926;27;20211;-79
2023/07/11 01:02:10;;;;;;;15.13;10.02;;;;;;;-143.21;71.73;71957.16;5107762;27;20311;-79
2023/07/11 01:04:38;;;;;;;22.52;10.65;;;;;;;-143.21;71.78;71957.16;5108376;27;20219;-80
2023/07/11 01:07:07;;;;;;;18.40;9.98;;;;;;;-143.21;72.49;71965.09;5107521;27;20214;-77
2023/07/11 01:09:34;;;;;;;13.43;9.60;;;;;;;-143.21;72.71;71961.13;5109858;27;20211;-78
2023/07/11 01:12:05;;;;;;;17.13;10.00;;;;;;;-143.21;72.67;71963.13;5110997;27;20255;-78
2023/07/11 01:14:34;;;;;;;21.23;9.40;;;;;;;-143.21;72.20;71955.19;5109132;27;20203;-78
2023/07/11 01:17:00;;;;;;;18.95;9.68;;;;;;;-143.21;72.57;71959.16;5110272;27;20632;-79
2023/07/11 01:19:27;;;;;;;12.88;9.88;;;;;;;-143.21;72.31;71959.16;5108068;27;20199;-78
2023/07/11 01:21:55;;;;;;;12.75;10.50;;;;;;;-143.21;72.57;71959.16;5111655;27;20231;-78
2023/07/11 01:24:22;;;;;;;15.30;9.93;;;;;;;-143.21;72.65;71955.19;5108676;27;20212;-78
2023/07/11 01:26:49;;;;;;;13.10;9.73;;;;;;;-143.21;72.46;71955.19;5106560;28;20265;-78
2023/07/11 01:29:16;;;;;;;13.82;10.07;;;;;;;-143.21;72.54;71959.16;5105934;28;20207;-79
2023/07/11 01:31:43;;;;;;;16.45;9.95;;;;;;;-143.21;72.57;71957.16;5109792;27;20212;-79
2023/07/11 01:34:10;;;;;;;12.90;9.60;;;;;;;-143.21;72.70;71963.13;5108049;27;20208;-78
2023/07/11 01:36:37;;;;;;;15.25;9.60;;;;;;;-143.21;72.65;71961.13;5106781;28;20196;-78
2023/07/11 01:39:07;;;;;;;14.57;9.65;;;;;;;-143.21;72.31;71957.16;5103576;27;20752;-78
2023/07/11 01:41:34;;;;;;;17.40;9.57;;;;;;;-143.21;72.31;71963.13;5101896;28;20943;-78
2023/07/11 01:44:02;;;;;;;16.35;10.07;;;;;;;-143.21;72.15;71961.13;5108106;28;20231;-78
2023/07/11 01:46:29;;;;;;;18.45;9.70;;;;;;;-143.21;72.45;71967.09;5109226;27;20655;-82
2023/07/11 01:48:56;;;;;;;11.77;9.93;;;;;;;-143.21;72.55;71971.06;5108443;28;20243;-81
2023/07/11 01:51:22;;;;;;;13.27;9.75;;;;;;;-143.21;72.54;71977.00;5110841;28;20678;-81
2023/07/11 01:53:49;;;;;;;18.35;10.13;;;;;;;-143.21;73.22;71990.88;5108635;28;20207;-81
2023/07/11 01:56:18;;;;;;;13.45;9.63;;;;;;;-143.21;73.28;71982.94;5107542;28;20211;-81
2023/07/11 01:58:45;;;;;;;12.93;9.63;;;;;;;-143.21;73.18;71988.91;5105909;28;20203;-81
2023/07/11 02:01:12;;;;;;;15.18;9.77;;;;;;;-143.21;73.09;71994.84;5106613;28;20662;-83
2023/07/11 02:03:39;;;;;;;13.55;9.32;;;;;;;-143.21;73.58;71986.91;5108511;28;20214;-83
2023/07/11 02:06:05;;;;;;;12.98;9.98;;;;;;;-143.21;73.48;71984.94;5108292;28;20207;-83
2023/07/11 02:08:32;;;;;;;17.63;9.65;;;;;;;-143.21;73.54;71984.94;5107028;28;20218;-83
2023/07/11 02:10:59;;;;;;;14.80;10.23;;;;;;;-143.21;73.32;71982.94;5107254;28;20204;-83
2023/07/11 02:13:27;;;;;;;16.27;9.93;;;;;;;-143.21;73.58;71988.91;5109052;28;20204;-83
2023/07/11 02:15:54;;;;;;;11.88;9.82;;;;;;;-143.21;73.75;71992.88;5107532;28;20227;-83
2023/07/11 02:18:21;;;;;;;12.75;9.23;;;;;;;-143.21;73.48;71994.84;5108024;28;20208;-83
2023/07/11 02:20:48;;;;;;;16.85;9.73;;;;;;;-143.21;73.46;71994.84;5106716;28;20264;-83
2023/07/11 02:23:16;;;;;;;16.30;10.25;;;;;;;-143.21;73.77;71998.81;5106253;28;20214;-83
2023/07/11 02:25:43;;;;;;;17.65;10.18;;;;;;;-143.21;73.57;71998.81;5106754;28;20578;-83
2023/07/11 02:28:10;;;;;;;12.70;9.90;;;;;;;-143.21;73.64;72010.72;5107915;28;20196;-83
2023/07/11 02:30:38;;;;;;;12.70;10.05;;;;;;;-143.21;73.56;72010.72;5108191;28;20203;-82
2023/07/11 02:33:05;;;;;;;17.30;9.70;;;;;;;-143.21;74.17;72016.66;5105482;28;20208;-81
2023/07/11 02:35:32;;;;;;;16.33;9.73;;;;;;;-143.21;73.96;72008.72;5107180;28;20222;-81
2023/07/11 02:38:00;;;;;;;15.25;10.57;;;;;;;-143.21;73.91;72014.69;5106276;28;20875;-82
2023/07/11 02:40:27;;;;;;;14.85;10.50;;;;;;;-143.21;74.05;72010.72;5107821;28;20200;-81
2023/07/11 02:42:54;;;;;;;13.73;9.75;;;;;;;-143.21;73.44;72012.69;5105356;28;20216;-82
2023/07/11 02:45:21;;;;;;;17.73;10.10;;;;;;;-143.21;72.67;72010.72;5105905;28;20245;-82
2023/07/11 02:47:49;;;;;;;13.50;9.50;;;;;;;-143.21;73.06;72012.69;5106599;28;20236;-81
2023/07/11 02:50:16;;;;;;;12.60;9.60;;;;;;;-143.21;73.58;72010.72;5107517;28;20200;-83
2023/07/11 02:52:43;;;;;;;15.63;9.95;;;;;;;-143.21;73.78;72010.72;5106011;28;20204;-83
2023/07/11 02:55:10;;;;;;;13.80;9.95;;;;;;;-143.21;73.75;72022.59;5106568;27;20211;-82
2023/07/11 02:57:40;;;;;;;13.50;9.88;;;;;;;-143.21;73.10;72018.63;5109241;27;20210;-82
2023/07/11 03:00:08;;;;;;;13.57;10.02;;;;;;;-143.21;73.75;72036.50;5110461;28;20283;-82
2023/07/11 03:02:35;;;;;;;19.95;10.80;;;;;;;-143.21;74.02;72034.50;5109951;28;20224;-83
2023/07/11 03:05:04;;;;;;;18.25;10.68;;;;;;;-143.21;74.10;72030.53;5110410;27;21425;-82
2023/07/11 03:07:30;;;;;;;15.00;10.65;;;;;;;-143.21;73.84;72030.53;5109681;27;20196;-82
2023/07/11 03:09:57;;;;;;;20.98;10.77;;;;;;;-143.21;73.99;72020.63;5111757;28;20982;-83
2023/07/11 03:12:24;;;;;;;18.15;10.55;;;;;;;-143.21;73.70;72024.59;5109971;27;20207;-82
2023/07/11 03:14:51;;;;;;;18.30;11.00;;;;;;;-143.21;73.54;72026.56;5110060;27;20204;-82
2023/07/11 03:17:18;;;;;;;18.70;10.05;;;;;;;-143.21;73.49;72038.47;5114285;27;20203;-81
2023/07/11 03:19:45;;;;;;;14.05;10.00;;;;;;;-143.21;73.59;72044.41;5112763;27;20206;-82
2023/07/11 03:22:13;;;;;;;16.98;10.30;;;;;;;-143.21;73.00;72040.44;5109152;27;20219;-82
2023/07/11 03:24:40;;;;;;;23.38;10.20;;;;;;;-143.21;72.70;72044.41;5111702;27;20196;-82
2023/07/11 03:27:07;;;;;;;15.25;10.13;;;;;;;-143.21;72.57;72046.41;5114422;27;20228;-82
2023/07/11 03:29:34;;;;;;;17.80;9.90;;;;;;;-143.21;72.70;72048.38;5109892;27;20204;-83
2023/07/11 03:32:01;;;;;;;17.98;10.60;;;;;;;-143.21;73.13;72052.34;5106011;27;20200;-83
2023/07/11 03:34:28;;;;;;;16.08;10.15;;;;;;;-143.21;73.38;72056.31;5109290;27;20208;-82
2023/07/11 03:36:55;;;;;;;20.90;10.25;;;;;;;-143.21;73.41;72064.25;5109844;27;20303;-81
2023/07/11 03:39:23;;;;;;;14.60;9.93;;;;;;;-143.21;73.30;72066.22;5109441;27;20204;-81
2023/07/11 03:41:50;;;;;;;16.63;10.90;;;;;;;-143.21;72.89;72066.22;5108606;27;20220;-81
2023/07/11 03:44:17;;;;;;;14.63;10.18;;;;;;;-143.21;72.62;72064.25;5108906;27;20207;-79
2023/07/11 03:46:44;;;;;;;21.55;10.85;;;;;;;-143.21;72.78;72056.31;5109091;27;20200;-79
2023/07/11 03:49:11;;;;;;;16.95;10.90;;;;;;;-143.21;73.05;72050.38;5107678;27;20300;-79
2023/07/11 03:51:38;;;;;;;16.02;10.75;;;;;;;-143.21;72.98;72046.41;5108821;27;20209;-80
2023/07/11 03:54:05;;;;;;;21.42;10.93;;;;;;;-143.21;72.90;72050.38;5109423;27;20200;-80
2023/07/11 03:56:33;;;;;;;15.38;10.77;;;;;;;-143.21;72.81;72052.34;5109460;27;20671;-81
2023/07/11 03:59:00;;;;;;;16.55;10.60;;;;;;;-143.21;73.07;72050.38;5111735;27;20208;-80
2023/07/11 04:01:27;;;;;;;17.25;10.82;;;;;;;-143.21;73.22;72038.47;5108020;27;20228;-79
2023/07/11 04:03:54;;;;;;;21.00;11.18;;;;;;;-143.21;72.95;72038.47;5109945;27;20207;-80
2023/07/11 04:06:21;;;;;;;17.55;11.07;;;;;;;-143.21;73.72;72036.50;5109219;27;20257;-80
2023/07/11 04:08:48;;;;;;;21.77;11.73;;;;;;;-143.21;73.24;72038.47;5107111;27;20562;-80
2023/07/11 04:11:14;;;;;;;18.95;10.95;;;;;;;-143.21;73.09;72036.50;5113951;27;20694;-80
2023/07/11 04:13:43;;;;;;;22.67;12.02;;;;;;;-143.21;73.38;72034.50;5108459;27;20200;-80
2023/07/11 04:16:10;;;;;;;21.95;10.75;;;;;;;-143.21;73.11;72026.56;5110301;27;20273;-81
2023/07/11 04:18:36;;;;;;;19.13;10.30;;;;;;;-143.21;72.81;72022.59;5109392;27;20199;-77
2023/07/11 04:21:03;;;;;;;19.17;10.82;;;;;;;-143.21;72.27;72018.63;5111900;27;20204;-80
2023/07/11 04:23:30;;;;;;;19.50;11.57;;;;;;;-143.21;72.26;72008.72;5110582;27;20223;-83
2023/07/11 04:25:57;;;;;;;20.15;11.65;;;;;;;-143.21;72.60;72022.59;5108134;27;20206;-80
2023/07/11 04:28:24;;;;;;;18.80;11.38;;;;;;;-143.21;72.60;72018.63;5106732;27;20212;-77
2023/07/11 04:30:52;;;;;;;16.80;11.45;;;;;;;-143.21;72.27;72008.72;5113568;27;20597;-80
2023/07/11 04:33:19;;;;;;;17.13;11.25;;;;;;;-143.21;72.48;72014.69;5107704;27;20199;-80
2023/07/11 04:35:46;;;;;;;15.95;11.32;;;;;;;-143.21;72.31;72010.72;5108425;27;20687;-80
2023/07/11 04:38:13;;;;;;;18.50;11.32;;;;;;;-143.21;72.23;72008.72;5107754;27;21004;-79
2023/07/11 04:40:40;;;;;;;17.38;11.30;;;;;;;-143.21;72.25;72012.69;5110251;27;20200;-79
2023/07/11 04:43:07;;;;;;;19.95;11.90;;;;;;;-143.21;72.41;72020.63;5112100;27;20228;-79
2023/07/11 04:45:34;;;;;;;15.80;10.85;;;;;;;-143.21;72.21;72012.69;5107637;27;20203;-80
2023/07/11 04:48:03;;;;;;;16.90;11.70;;;;;;;-143.21;72.27;72010.72;5106462;28;20327;-80
2023/07/11 04:50:30;;;;;;;15.45;11.60;;;;;;;-143.21;72.13;72008.72;5105805;28;20200;-80
2023/07/11 04:52:57;;;;;;;20.52;11.52;;;;;;;-143.21;72.07;72002.78;5109982;27;20272;-80
2023/07/11 04:55:24;;;;;;;19.45;11.38;;;;;;;-143.21;72.18;71996.81;5107248;28;20212;-81
2023/07/11 04:57:51;;;;;;;20.88;12.15;;;;;;;-143.21;72.02;71994.84;5108239;28;20208;-82
2023/07/11 05:00:18;;;;;;;23.98;11.98;;;;;;;-143.21;72.22;72006.75;5108741;27;20199;-83
2023/07/11 05:02:45;;;;;;;23.55;12.65;;;;;;;-143.21;72.38;72006.75;5110959;27;20281;-79
2023/07/11 05:05:13;;;;;;;23.08;12.85;;;;;;;-143.21;72.66;72002.78;5109637;27;20609;-82
2023/07/11 05:07:40;;;;;;;20.98;12.65;;;;;;;-143.21;72.70;71994.84;5111640;27;20616;-81
2023/07/11 05:10:07;;;;;;;20.52;13.02;;;;;;;-143.21;72.88;71996.81;5108437;28;20200;-82
2023/07/11 05:12:34;;;;;;;20.73;12.00;;;;;;;-143.21;73.10;71992.88;5112828;28;20206;-90
2023/07/11 05:15:02;;;;;;;19.67;11.32;;;;;;;-143.21;73.23;71994.84;5117709;27;20279;-91
2023/07/11 05:17:29;;;;;;;15.70;11.40;;;;;;;-143.21;72.13;71982.94;5117178;27;20273;-91
2023/07/11 05:19:56;;;;;;;15.05;10.80;;;;;;;-143.21;72.04;71965.09;5112935;27;20204;-89
2023/07/11 05:22:26;;;;;;;23.45;11.93;;;;;;;-143.21;71.63;71959.16;5112748;28;20219;-89
2023/07/11 05:24:53;;;;;;;16.13;11.52;;;;;;;-143.21;71.54;71953.19;5117945;28;20648;-90
2023/07/11 05:27:21;;;;;;;16.58;11.18;;;;;;;-143.21;71.73;71951.22;5114859;27;20196;-92
2023/07/11 05:29:49;;;;;;;23.15;11.63;;;;;;;-143.21;71.89;71947.25;5114343;27;20211;-91
2023/07/11 05:32:16;;;;;;;19.90;11.27;;;;;;;-143.21;71.84;71941.31;5115865;27;20211;-91
2023/07/11 05:34:42;;;;;;;27.95;12.05;;;;;;;-143.21;70.97;71933.38;5118106;27;20208;-91
2023/07/11 05:37:09;;;;;;;23.83;11.80;;;;;;;-143.21;70.90;71931.38;5114285;27;20200;-89
2023/07/11 05:39:38;;;;;;;17.95;11.43;;;;;;;-143.21;70.87;71925.44;5110325;28;20206;-89
2023/07/11 05:42:05;;;;;;;15.13;11.18;;;;;;;-143.21;70.83;71923.47;5112212;28;20234;-83
2023/07/11 05:44:32;;;;;;;15.13;10.98;;;;;;;-143.21;70.50;71919.50;5108046;28;20211;-83
2023/07/11 05:46:59;;;;;;;18.85;11.20;;;;;;;-143.21;69.51;71913.53;5109278;27;20207;-83
2023/07/11 05:49:26;;;;;;;20.80;10.48;;;;;;;-143.21;69.43;71909.56;5106477;28;20228;-83
2023/07/11 05:51:53;;;;;;;16.23;11.35;;;;;;;-143.21;69.41;71903.63;5108065;28;20229;-83
2023/07/11 05:54:20;;;;;;;20.67;12.50;;;;;;;-143.21;69.36;71887.78;5107355;28;20203;-84
2023/07/11 05:56:48;;;;;;;15.38;11.05;;;;;;;-143.21;69.18;71879.84;5107537;28;20215;-83
2023/07/11 05:59:15;;;;;;;19.25;11.13;;;;;;;-143.21;69.43;71867.94;5106836;28;20222;-80
2023/07/11 06:01:42;;;;;;;15.05;10.75;;;;;;;-143.21;68.91;71854.06;5107627;28;20203;-82
2023/07/11 06:04:12;;;;;;;16.85;11.52;;;;;;;-143.21;68.84;71856.03;5106504;28;20196;-81
2023/07/11 06:06:42;;;;;;;22.50;11.68;;;;;;;-143.21;68.47;71850.09;5107417;28;20196;-82
2023/07/11 06:09:11;;;;;;;13.95;11.35;;;;;;;-143.21;68.08;71844.16;5105386;28;20204;-82
2023/07/11 06:11:38;;;;;;;20.52;11.82;;;;;;;-143.21;68.09;71842.16;5112601;28;20584;-82
2023/07/11 06:14:07;;;;;;;19.60;11.38;;;;;;;-143.21;68.60;71838.19;5108551;28;20591;-82
2023/07/11 06:16:34;;;;;;;14.75;11.05;;;;;;;-143.21;68.23;71838.19;5108226;28;20713;-82
2023/07/11 06:19:03;;;;;;;17.73;11.73;;;;;;;-143.21;67.87;71830.25;5105432;28;20203;-82
2023/07/11 06:21:30;;;;;;;30.10;13.15;;;;;;;-143.21;67.88;71824.31;5106528;28;20204;-82
2023/07/11 06:23:57;;;;;;;22.80;11.88;;;;;;;-143.21;67.83;71814.41;5108388;28;20228;-82
2023/07/11 06:26:24;;;;;;;16.83;10.88;;;;;;;-143.21;67.79;71814.41;5107540;28;20231;-82
2023/07/11 06:28:51;;;;;;;19.88;12.10;;;;;;;-143.21;67.74;71808.44;5105754;28;20295;-81
2023/07/11 06:31:19;;;;;;;19.38;11.68;;;;;;;-143.21;67.95;71808.44;5108337;27;20705;-81
2023/07/11 06:33:46;;;;;;;18.35;12.38;;;;;;;-143.21;67.53;71810.44;5116492;27;20200;-80
2023/07/11 06:36:13;;;;;;;21.05;11.95;;;;;;;-143.21;67.71;71814.41;5113404;27;20200;-80
2023/07/11 06:38:40;;;;;;;25.20;13.75;;;;;;;-143.21;67.58;71792.59;5111081;27;20200;-79
2023/07/11 06:41:06;;;;;;;17.65;12.95;;;;;;;-143.21;67.25;71784.66;5109454;27;20589;-81
2023/07/11 06:43:33;;;;;;;23.48;13.40;;;;;;;-143.21;67.27;71776.72;5111086;28;20227;-80
2023/07/11 06:46:01;;;;;;;18.45;12.13;;;;;;;-143.21;67.60;71762.84;5113427;27;20207;-80
2023/07/11 06:48:31;;;;;;;21.90;11.48;;;;;;;-143.21;67.31;71746.97;5111683;27;20596;-80
2023/07/11 06:51:00;;;;;;;21.63;11.63;;;;;;;-143.21;66.60;71737.06;5112494;27;20220;-81
2023/07/11 06:53:29;;;;;;;18.50;12.13;;;;;;;-143.21;66.83;71727.16;5114264;27;20231;-80
2023/07/11 06:55:56;;;;;;;19.17;12.40;;;;;;;-143.21;66.69;71717.25;5109854;27;20208;-79
2023/07/11 06:58:24;;;;;;;20.98;12.02;;;;;;;-143.21;66.56;71705.34;5113005;27;20273;-80
2023/07/11 07:00:55;;;;;;;21.65;12.23;;;;;;;-143.21;65.91;71699.41;5110439;27;20200;-79
2023/07/11 07:03:22;;;;;;;25.40;12.10;;;;;;;-143.21;65.35;71687.50;5109550;27;20725;-79
2023/07/11 07:05:52;;;;;;;19.27;11.25;;;;;;;-143.21;65.56;71683.53;5112754;27;20299;-80
2023/07/11 07:08:21;;;;;;;24.50;11.90;;;;;;;-143.21;65.56;71669.66;5110348;28;20207;-85
2023/07/11 07:10:48;;;;;;;16.52;11.88;;;;;;;-143.21;64.39;71647.84;5110510;27;20200;-83
2023/07/11 07:13:16;;;;;;;16.95;11.18;;;;;;;-143.21;64.42;71637.94;5112471;27;20204;-88
2023/07/11 07:15:43;;;;;;;31.08;11.65;;;;;;;-143.21;64.14;71620.09;5112154;27;20196;-87
2023/07/11 07:18:13;;;;;;;20.15;10.60;;;;;;;-143.21;64.62;71606.22;5111172;27;20200;-87
2023/07/11 07:20:40;;;;;;;18.75;11.20;;;;;;;-143.21;63.54;71598.28;5111683;27;20228;-87
2023/07/11 07:23:11;;;;;;;16.95;11.32;;;;;;;-143.21;63.48;71588.38;5110506;28;20251;-87
2023/07/11 07:25:38;;;;;;;20.48;10.82;;;;;;;-143.21;62.81;71568.53;5109346;27;20195;-87
2023/07/11 07:28:05;;;;;;;17.02;10.85;;;;;;;-143.21;61.83;71558.63;5113702;27;20216;-86
2023/07/11 07:30:32;;;;;;;20.95;11.98;;;;;;;-143.21;61.65;71554.66;5111719;28;20303;-87
2023/07/11 07:32:59;;;;;;;22.95;11.48;;;;;;;-143.21;61.64;71546.72;5111211;27;20288;-86
2023/07/11 07:35:26;;;;;;;17.17;11.13;;;;;;;-143.21;61.65;71548.72;5110784;27;20280;-83
2023/07/11 07:37:53;;;;;;;17.70;10.43;;;;;;;-143.21;62.13;71536.81;5110968;27;20211;-86
2023/07/11 07:40:22;;;;;;;17.92;11.20;;;;;;;-143.21;62.12;71528.88;5111404;27;20208;-88
2023/07/11 07:42:52;;;;;;;19.00;11.13;;;;;;;-143.21;61.91;71513.03;5110976;27;21148;-88
2023/07/11 07:45:19;;;;;;;15.98;10.27;;;;;;;-143.21;61.94;71503.09;5110905;27;20207;-86
2023/07/11 07:47:46;;;;;;;18.98;11.27;;;;;;;-143.21;62.07;71493.19;5118066;27;20667;-86
2023/07/11 07:50:13;;;;;;;19.33;10.90;;;;;;;-143.21;61.83;71475.34;5112439;27;20204;-84
2023/07/11 07:52:40;;;;;;;16.58;10.13;;;;;;;-143.21;62.23;71447.59;5112186;27;20203;-88
2023/07/11 07:55:08;;;;;;;17.98;10.88;;;;;;;-143.21;61.73;71405.94;5108678;27;20257;-87
2023/07/11 07:57:37;;;;;;;19.30;9.63;;;;;;;-143.21;61.61;71380.19;5108062;27;20320;-86
2023/07/11 08:00:05;;;;;;;15.70;10.05;;;;;;;-143.21;59.92;71360.34;5111471;28;20208;-88
2023/07/11 08:02:32;;;;;;;13.02;9.60;;;;;;;-143.21;59.42;71336.56;5109440;28;20200;-86
2023/07/11 08:05:12;;;;;;;18.58;9.93;;;;;;;-143.21;58.66;71318.72;5109863;27;20216;-87
2023/07/11 08:08:00;;;;;;;15.43;8.30;;;;;;;-143.21;54.00;71287.00;5108469;27;20200;-86
2023/07/11 08:10:32;;;;;;;12.15;7.53;;;;;;;-143.21;51.44;71279.06;5081066;27;20204;-85
2023/07/11 08:13:14;;;;;;;10.32;7.70;;;;;;;-143.21;51.18;71271.13;5113286;27;20230;-87
2023/07/11 08:15:52;;;;;;;11.82;8.18;;;;;;;-143.21;51.62;71265.19;5113232;28;20276;-88
2023/07/11 08:18:25;;;;;;;12.18;7.75;;;;;;;-143.21;51.39;71255.28;5113395;28;20202;-87
2023/07/11 08:20:58;;;;;;;14.48;8.70;;;;;;;-143.21;50.61;71241.41;5113560;28;20347;-86
2023/07/11 08:23:39;;;;;;;11.77;7.90;;;;;;;-143.21;51.83;71227.53;5113525;28;20210;-89
2023/07/11 08:26:06;;;;;;;9.60;7.35;;;;;;;-143.21;51.73;71215.63;5113397;28;20650;-82
2023/07/11 08:28:34;;;;;;;15.40;7.68;;;;;;;-143.21;49.06;71199.78;5113537;27;20211;-84
2023/07/11 08:31:28;;;;;;;10.05;7.28;;;;;;;-143.21;48.47;71199.78;5113588;27;20674;-86
2023/07/11 08:34:02;;;;;;;11.10;7.93;;;;;;;-143.21;49.18;71193.81;5105481;28;20696;-85
2023/07/11 08:36:29;;;;;;;10.70;7.60;;;;;;;-143.21;49.26;71191.84;5113523;27;20195;-84
2023/07/11 08:39:02;;;;;;;10.90;7.45;;;;;;;-143.21;48.52;71193.81;5111906;28;20264;-82
2023/07/11 08:41:40;;;;;;;10.55;7.53;;;;;;;-143.21;48.54;71185.88;5112747;28;20279;-82
2023/07/11 08:44:15;;;;;;;10.32;8.02;;;;;;;-143.21;49.38;71185.88;5112894;28;20774;-82
2023/07/11 08:46:53;;;;;;;11.60;7.88;;;;;;;-143.21;49.02;71175.97;5112786;28;20650;-83
2023/07/11 08:49:45;;;;;;;8.40;7.50;;;;;;;-143.21;48.55;71174.00;5112752;28;20268;-83
2023/07/11 08:52:13;;;;;;;14.25;7.20;;;;;;;-143.21;49.26;71168.06;5121024;27;20195;-83
2023/07/11 08:58:04;;;;;;;11.40;7.07;;;;;;;-143.21;48.13;71148.22;5088052;28;20622;-82
2023/07/11 09:00:38;;;;;;;11.07;7.05;;;;;;;-143.21;47.01;71128.41;5112009;28;20562;-81
2023/07/11 09:03:12;;;;;;;9.60;7.10;;;;;;;-143.21;47.72;71102.63;5112714;28;20212;-83
2023/07/11 09:05:57;;;;;;;14.52;7.03;;;;;;;-143.21;46.52;71090.72;5112568;28;20195;-84
2023/07/11 09:08:25;;;;;;;12.85;6.55;;;;;;;-143.21;46.53;71074.88;5112805;28;20192;-86
2023/07/11 09:11:03;;;;;;;10.40;7.18;;;;;;;-143.21;46.39;71070.91;5128272;27;20577;-83
2023/07/11 09:14:00;;;;;;;9.85;6.68;;;;;;;-143.21;45.42;71057.03;5133035;27;20195;-83
2023/07/11 09:16:48;;;;;;;8.50;7.00;;;;;;;-143.21;46.18;71057.03;5096926;28;20192;-86
2023/07/11 09:19:27;;;;;;;7.68;6.47;;;;;;;-143.21;46.97;71051.09;5108782;27;20299;-85
2023/07/11 09:22:04;;;;;;;8.05;6.85;;;;;;;-143.21;45.62;71043.16;5117965;27;20188;-87
2023/07/11 09:24:37;;;;;;;7.93;6.80;;;;;;;-143.21;46.07;71023.34;5110157;28;20212;-87
2023/07/11 09:27:14;;;;;;;11.23;6.25;;;;;;;-143.21;45.76;71015.41;5110084;28;20245;-86
2023/07/11 09:29:42;;;;;;;8.85;6.30;;;;;;;-143.21;46.71;71013.41;5110553;28;20188;-86
2023/07/11 09:32:12;;;;;;;7.47;6.70;;;;;;;-143.21;45.12;71011.44;5110344;27;20204;-86
2023/07/11 09:34:43;;;;;;;9.98;6.43;;;;;;;-143.21;44.43;70995.56;5110473;28;20200;-86
2023/07/11 09:37:20;;;;;;;8.35;6.47;;;;;;;-143.21;44.56;70989.63;5110249;27;20214;-87
2023/07/11 09:39:52;;;;;;;8.35;6.40;;;;;;;-143.21;44.60;70969.81;5115187;27;20314;-85
2023/07/11 09:42:26;;;;;;;16.33;6.97;;;;;;;-143.21;45.02;70953.94;5116652;27;20223;-86
2023/07/11 09:45:02;;;;;;;9.98;7.03;;;;;;;-143.21;43.74;70951.97;5109433;28;20261;-86
2023/07/11 09:47:33;;;;;;;13.07;6.97;;;;;;;-143.21;43.60;70948.00;5110534;28;20241;-88
2023/07/11 09:50:05;;;;;;;8.07;6.45;;;;;;;-143.21;44.14;70957.91;5110202;28;20200;-89
2023/07/11 09:52:35;;;;;;;9.45;6.07;;;;;;;-143.21;44.61;70938.09;5117582;28;20188;-88
2023/07/11 09:55:02;;;;;;;9.60;6.55;;;;;;;-143.21;44.87;70918.25;5108867;28;20250;-87
2023/07/11 09:57:29;;;;;;;8.48;6.30;;;;;;;-143.21;43.82;70892.50;5108895;28;21438;-87
2023/07/11 10:00:00;;;;;;;10.73;6.38;;;;;;;-143.21;43.74;70880.59;5110533;28;20204;-86
2023/07/11 10:02:27;;;;;;;11.00;6.88;;;;;;;-143.21;43.56;70858.78;5111134;27;20222;-89
2023/07/11 10:04:57;;;;;;;7.45;6.07;;;;;;;-143.21;43.11;70844.91;5111287;28;20246;-88
2023/07/11 10:07:30;;;;;;;9.32;6.15;;;;;;;-143.21;43.31;70835.00;5114670;28;20192;-89
2023/07/11 10:10:01;;;;;;;8.15;6.60;;;;;;;-143.21;43.15;70842.94;5114572;28;20195;-84
2023/07/11 10:12:28;;;;;;;10.15;6.55;;;;;;;-143.21;43.77;70831.03;5113743;27;20200;-80
2023/07/11 10:14:58;;;;;;;8.98;6.78;;;;;;;-143.21;43.33;70817.16;5113954;27;20195;-88
2023/07/11 10:17:27;;;;;;;9.85;6.45;;;;;;;-143.21;43.11;70789.41;5114847;27;20735;-87
2023/07/11 10:19:59;;;;;;;11.88;7.00;;;;;;;-143.21;42.85;70767.63;5118128;27;20219;-85
2023/07/11 10:22:28;;;;;;;7.70;6.55;;;;;;;-143.21;42.30;70749.78;5120041;27;20544;-89
2023/07/11 10:25:01;;;;;;;7.45;6.38;;;;;;;-143.21;42.53;70718.06;5114525;27;20219;-91
2023/07/11 10:27:32;;;;;;;9.27;6.70;;;;;;;-143.21;42.83;70704.19;5125087;27;20199;-89
2023/07/11 10:30:01;;;;;;;7.38;6.55;;;;;;;-143.21;40.90;70700.22;5122572;27;20209;-87
2023/07/11 10:32:33;;;;;;;7.40;6.28;;;;;;;-143.21;40.93;70706.16;5119492;27;20643;-86
2023/07/11 10:35:05;;;;;;;11.57;6.70;;;;;;;-143.21;41.54;70704.19;5113643;27;20208;-87
2023/07/11 10:37:39;;;;;;;8.05;6.13;;;;;;;-143.21;41.72;70690.31;5113719;27;20202;-83
2023/07/11 10:40:15;;;;;;;8.00;6.10;;;;;;;-143.21;40.89;70670.47;5122401;27;20204;-85
2023/07/11 10:42:46;;;;;;;8.85;6.82;;;;;;;-143.21;41.89;70666.50;5110477;27;20199;-83
2023/07/11 10:45:17;;;;;;;11.18;6.07;;;;;;;-143.21;40.53;70656.59;5112025;27;20219;-86
2023/07/11 10:48:00;;;;;;;10.20;6.25;;;;;;;-143.21;38.41;70646.69;5112201;27;20243;-83
2023/07/11 10:50:37;;;;;;;8.52;5.78;;;;;;;-143.21;38.60;70638.75;5114242;27;20212;-87
2023/07/11 10:53:15;;;;;;;9.27;5.60;;;;;;;-143.21;38.69;70646.69;5115010;28;20728;-84
2023/07/11 10:55:51;;;;;;;8.15;5.68;;;;;;;-143.21;38.60;70634.81;5117803;27;20577;-84
2023/07/11 10:58:23;;;;;;;8.38;6.03;;;;;;;-143.21;39.12;70616.97;5124063;27;20203;-87
2023/07/11 11:01:00;;;;;;;7.15;5.60;;;;;;;-143.21;38.74;70587.22;5114927;28;20192;-85
2023/07/11 11:03:37;;;;;;;10.32;5.93;;;;;;;-143.21;38.10;70567.41;5114549;28;20199;-85
2023/07/11 11:06:22;;;;;;;8.93;5.95;;;;;;;-143.21;37.36;70561.47;5115020;28;20233;-84
2023/07/11 11:08:57;;;;;;;7.03;5.60;;;;;;;-143.21;38.19;70547.59;5114943;28;20176;-84
2023/07/11 11:11:33;;;;;;;7.85;5.68;;;;;;;-143.21;36.94;70519.84;5115231;28;20809;-84
2023/07/11 11:14:12;;;;;;;10.82;6.00;;;;;;;-143.21;37.10;70519.84;5114989;28;20192;-84
2023/07/11 11:16:53;;;;;;;24.42;6.20;;;;;;;-143.21;36.76;70527.75;5113820;28;20189;-85
2023/07/11 11:19:42;;;;;;;10.30;5.75;;;;;;;-143.21;37.42;70500.00;5114018;28;20673;-85